createdAt,value
2022-09-21T03:31:26.482Z,10.38
2022-09-21T03:36:24.124Z,10.77
2022-09-21T03:41:20.964Z,8.55
2022-09-21T03:51:14.371Z,9.65
2022-09-21T03:56:10.810Z,10.20
2022-09-21T04:13:56.234Z,9.65
2022-09-21T04:42:24.321Z,8.75
2022-09-21T05:03:12.165Z,11.02
2022-09-21T05:08:08.632Z,11.95
2022-09-21T05:13:05.192Z,11.57
2022-09-21T05:18:01.659Z,11.70
2022-09-21T05:23:02.423Z,15.98
2022-09-21T05:27:59.963Z,11.73
2022-09-21T05:33:01.961Z,12.20
2022-09-21T05:38:07.923Z,12.15
2022-09-21T05:43:04.698Z,11.85
2022-09-21T05:48:02.357Z,11.40
2022-09-21T05:53:49.295Z,13.50
2022-09-21T05:59:09.477Z,8.90
2022-09-21T06:04:29.334Z,13.30
2022-09-21T06:09:37.927Z,11.70
2022-09-21T06:14:46.190Z,10.52
2022-09-21T06:20:19.725Z,9.60
2022-09-21T06:25:20.700Z,17.15
2022-09-21T06:30:52.520Z,10.38
2022-09-21T06:36:12.220Z,10.95
2022-09-21T06:41:32.231Z,12.25
2022-09-21T06:46:55.960Z,13.60
2022-09-21T06:52:14.593Z,12.88
2022-09-21T06:57:31.068Z,13.02
2022-09-21T07:02:50.125Z,19.92
2022-09-21T07:20:34.499Z,15.38
2022-09-21T07:25:45.829Z,16.98
2022-09-21T07:31:08.889Z,16.08
2022-09-21T07:36:35.437Z,16.50
2022-09-21T07:41:56.167Z,18.63
2022-09-21T07:47:13.723Z,16.88
2022-09-21T07:52:13.139Z,14.38
2022-09-21T07:57:28.414Z,14.50
2022-09-21T08:02:25.209Z,13.95
2022-09-21T08:07:21.681Z,14.35
2022-09-21T08:12:19.774Z,10.60
2022-09-21T08:17:16.260Z,12.23
2022-09-21T08:22:13.949Z,10.40
2022-09-21T08:27:11.145Z,14.50
2022-09-21T08:32:07.609Z,9.82
2022-09-21T08:37:13.146Z,9.02
2022-09-21T08:42:53.902Z,9.95
2022-09-21T08:59:48.390Z,10.57
2022-09-21T09:05:32.816Z,9.90
2022-09-21T09:10:38.848Z,9.23
2022-09-21T09:15:37.833Z,10.75
2022-09-21T09:22:15.102Z,16.90
2022-09-21T09:27:09.602Z,6.88
2022-09-21T09:32:47.096Z,5.35
2022-09-21T09:43:44.502Z,6.97
2022-09-21T09:49:37.414Z,6.13
2022-09-21T09:54:48.495Z,5.32
2022-09-21T10:00:07.387Z,4.55
2022-09-21T10:17:09.159Z,5.25
2022-09-21T10:22:49.053Z,4.57
2022-09-21T10:28:09.139Z,6.13
2022-09-21T10:33:44.797Z,5.72
2022-09-21T10:39:03.879Z,4.45
2022-09-21T10:49:36.854Z,3.92
2022-09-21T10:54:38.074Z,3.67
2022-09-21T11:00:06.849Z,6.40
2022-09-21T11:05:16.407Z,4.28
2022-09-21T11:11:02.994Z,5.22
2022-09-21T11:16:28.773Z,3.70
2022-09-21T11:22:04.456Z,1.60
2022-09-21T11:27:15.396Z,3.35
2022-09-21T11:32:27.522Z,2.75
2022-09-21T11:44:01.661Z,2.95
2022-09-21T11:49:35.010Z,2.65
2022-09-21T11:54:51.420Z,3.58
2022-09-21T12:00:07.887Z,3.38
2022-09-21T12:05:17.400Z,7.20
2022-09-21T12:10:37.529Z,3.40
2022-09-21T12:15:43.165Z,4.68
2022-09-21T12:21:54.666Z,3.55
2022-09-21T12:27:24.267Z,3.05
2022-09-21T12:32:54.193Z,6.28
2022-09-21T12:38:16.528Z,3.90
2022-09-21T12:43:46.328Z,3.60
2022-09-21T12:48:48.566Z,5.45
2022-09-21T12:53:51.584Z,2.08
2022-09-21T12:59:03.890Z,2.80
2022-09-21T13:04:49.755Z,3.15
2022-09-21T13:10:00.574Z,3.53
2022-09-21T13:15:31.020Z,2.97
2022-09-21T13:20:37.910Z,5.43
2022-09-21T13:25:43.348Z,3.78
2022-09-21T13:30:51.429Z,2.10
2022-09-21T13:36:53.611Z,3.08
2022-09-21T13:42:02.908Z,4.28
2022-09-21T13:47:34.683Z,3.53
2022-09-21T13:53:00.111Z,2.92
2022-09-21T13:58:16.935Z,2.42
2022-09-21T14:03:32.897Z,2.87
2022-09-21T14:08:39.939Z,4.40
2022-09-21T14:24:06.189Z,3.53
2022-09-21T14:29:17.322Z,3.13
2022-09-21T14:34:23.361Z,2.60
2022-09-21T14:39:24.941Z,3.13
2022-09-21T14:44:31.361Z,4.40
2022-09-21T15:20:26.433Z,3.83
2022-09-21T15:25:24.851Z,3.85
2022-09-21T15:30:28.730Z,4.50
2022-09-21T15:35:29.667Z,4.90
2022-09-21T15:40:28.203Z,4.10
2022-09-21T15:45:25.954Z,4.43
2022-09-21T15:50:23.396Z,4.40
2022-09-21T15:55:21.425Z,4.97
2022-09-21T16:00:22.057Z,4.07
2022-09-21T16:05:21.107Z,3.65
2022-09-21T16:10:29.440Z,6.85
2022-09-21T16:15:34.104Z,6.90
2022-09-21T16:20:45.647Z,4.45
2022-09-21T16:25:42.935Z,4.93
2022-09-21T16:30:49.122Z,3.90
2022-09-21T16:35:46.346Z,3.53
2022-09-21T16:40:54.025Z,3.50
2022-09-21T16:45:50.516Z,4.32
2022-09-21T16:55:46.229Z,3.28
2022-09-21T17:00:45.166Z,3.45
2022-09-21T17:06:48.752Z,4.68
2022-09-21T17:12:12.015Z,4.57
2022-09-21T17:17:49.570Z,4.88
2022-09-21T17:35:06.356Z,6.28
2022-09-21T17:57:44.085Z,6.35
2022-09-21T18:03:17.068Z,8.80
2022-09-21T18:08:43.745Z,7.72
2022-09-21T18:14:33.926Z,8.57
2022-09-21T18:20:06.947Z,9.50
2022-09-21T18:26:06.099Z,9.55
2022-09-21T18:31:43.438Z,9.77
2022-09-21T18:37:12.672Z,8.38
2022-09-21T18:43:05.886Z,8.02
2022-09-21T18:48:50.959Z,8.30
2022-09-21T18:54:18.126Z,9.10
2022-09-21T18:59:46.985Z,7.18
2022-09-21T19:05:01.891Z,9.55
2022-09-21T19:10:47.430Z,8.68
2022-09-21T19:16:44.774Z,11.77
2022-09-21T19:22:04.278Z,9.23
2022-09-21T19:27:41.385Z,9.55
2022-09-21T19:33:06.995Z,8.82
2022-09-21T19:38:23.580Z,7.13
2022-09-21T19:44:15.761Z,9.25
2022-09-21T19:49:57.182Z,9.70
2022-09-21T20:08:10.358Z,11.77
2022-09-21T20:57:06.334Z,13.73
2022-09-21T21:02:27.597Z,11.50
2022-09-21T21:08:29.428Z,11.52
2022-09-21T21:32:54.079Z,10.52
2022-09-21T21:52:14.884Z,11.10
2022-09-21T21:57:32.648Z,10.93
2022-09-21T22:09:31.978Z,11.52
2022-09-21T22:39:43.575Z,10.68
2022-09-21T23:23:47.112Z,11.15
